sensor_id;sensor_type;location;lat;lon;timestamp;P1;durP1;ratioP1;P2;durP2;ratioP2
21825;SDS011;11075;47.944;11.776;2022-09-09T00:02:24;3.53;;;1.93;;
21825;SDS011;11075;47.944;11.776;2022-09-09T00:05:17;3.22;;;1.60;;
21825;SDS011;11075;47.944;11.776;2022-09-09T00:07:47;12.20;;;2.33;;
21825;SDS011;11075;47.944;11.776;2022-09-09T00:13:01;3.23;;;1.70;;
21825;SDS011;11075;47.944;11.776;2022-09-09T00:18:27;4.47;;;1.60;;
21825;SDS011;11075;47.944;11.776;2022-09-09T00:21:06;3.50;;;1.70;;
21825;SDS011;11075;47.944;11.776;2022-09-09T00:23:39;4.67;;;1.80;;
21825;SDS011;11075;47.944;11.776;2022-09-09T00:31:39;4.77;;;1.83;;
21825;SDS011;11075;47.944;11.776;2022-09-09T00:34:11;10.40;;;2.00;;
21825;SDS011;11075;47.944;11.776;2022-09-09T00:36:40;3.50;;;1.80;;
21825;SDS011;11075;47.944;11.776;2022-09-09T00:39:09;7.10;;;1.93;;
21825;SDS011;11075;47.944;11.776;2022-09-09T00:42:11;5.40;;;1.73;;
21825;SDS011;11075;47.944;11.776;2022-09-09T00:44:38;2.93;;;1.50;;
21825;SDS011;11075;47.944;11.776;2022-09-09T00:53:19;3.97;;;1.70;;
21825;SDS011;11075;47.944;11.776;2022-09-09T00:56:12;2.90;;;1.83;;
21825;SDS011;11075;47.944;11.776;2022-09-09T00:58:42;6.87;;;1.63;;
21825;SDS011;11075;47.944;11.776;2022-09-09T01:01:12;2.75;;;1.75;;
21825;SDS011;11075;47.944;11.776;2022-09-09T01:03:45;7.03;;;1.73;;
21825;SDS011;11075;47.944;11.776;2022-09-09T01:06:22;5.88;;;1.95;;
21825;SDS011;11075;47.944;11.776;2022-09-09T01:19:50;2.97;;;1.87;;
21825;SDS011;11075;47.944;11.776;2022-09-09T01:22:28;4.67;;;1.57;;
21825;SDS011;11075;47.944;11.776;2022-09-09T01:25:12;2.43;;;1.60;;
21825;SDS011;11075;47.944;11.776;2022-09-09T01:28:08;2.70;;;1.25;;
21825;SDS011;11075;47.944;11.776;2022-09-09T01:30:40;3.38;;;1.20;;
21825;SDS011;11075;47.944;11.776;2022-09-09T01:33:13;4.78;;;1.35;;
21825;SDS011;11075;47.944;11.776;2022-09-09T01:35:52;7.78;;;1.80;;
21825;SDS011;11075;47.944;11.776;2022-09-09T01:38:28;4.13;;;1.67;;
21825;SDS011;11075;47.944;11.776;2022-09-09T01:40:56;5.30;;;1.90;;
21825;SDS011;11075;47.944;11.776;2022-09-09T01:43:33;4.38;;;1.70;;
21825;SDS011;11075;47.944;11.776;2022-09-09T01:46:01;3.28;;;1.63;;
21825;SDS011;11075;47.944;11.776;2022-09-09T01:48:29;4.05;;;1.73;;
21825;SDS011;11075;47.944;11.776;2022-09-09T01:51:02;3.55;;;1.65;;
21825;SDS011;11075;47.944;11.776;2022-09-09T01:53:29;2.78;;;1.50;;
21825;SDS011;11075;47.944;11.776;2022-09-09T01:58:39;1.67;;;1.40;;
21825;SDS011;11075;47.944;11.776;2022-09-09T02:01:37;6.22;;;1.80;;
21825;SDS011;11075;47.944;11.776;2022-09-09T02:07:45;2.00;;;1.80;;
21825;SDS011;11075;47.944;11.776;2022-09-09T02:10:21;4.85;;;1.73;;
21825;SDS011;11075;47.944;11.776;2022-09-09T02:15:42;3.47;;;1.90;;
21825;SDS011;11075;47.944;11.776;2022-09-09T02:18:10;4.75;;;2.03;;
21825;SDS011;11075;47.944;11.776;2022-09-09T02:20:41;3.47;;;1.90;;
21825;SDS011;11075;47.944;11.776;2022-09-09T02:23:10;5.13;;;1.60;;
21825;SDS011;11075;47.944;11.776;2022-09-09T02:25:39;2.53;;;1.55;;
21825;SDS011;11075;47.944;11.776;2022-09-09T02:28:19;5.50;;;1.90;;
21825;SDS011;11075;47.944;11.776;2022-09-09T02:30:50;5.03;;;1.95;;
21825;SDS011;11075;47.944;11.776;2022-09-09T02:33:28;3.47;;;2.05;;
21825;SDS011;11075;47.944;11.776;2022-09-09T02:36:01;6.47;;;1.90;;
21825;SDS011;11075;47.944;11.776;2022-09-09T02:38:32;2.50;;;2.00;;
21825;SDS011;11075;47.944;11.776;2022-09-09T02:41:07;2.72;;;1.73;;
21825;SDS011;11075;47.944;11.776;2022-09-09T02:43:35;9.13;;;2.45;;
21825;SDS011;11075;47.944;11.776;2022-09-09T02:48:53;3.97;;;1.85;;
21825;SDS011;11075;47.944;11.776;2022-09-09T02:51:35;3.47;;;2.42;;
21825;SDS011;11075;47.944;11.776;2022-09-09T02:54:36;3.55;;;1.75;;
21825;SDS011;11075;47.944;11.776;2022-09-09T02:59:40;5.10;;;1.67;;
21825;SDS011;11075;47.944;11.776;2022-09-09T03:02:07;4.07;;;1.88;;
21825;SDS011;11075;47.944;11.776;2022-09-09T03:04:37;6.87;;;1.60;;
21825;SDS011;11075;47.944;11.776;2022-09-09T03:07:05;2.55;;;1.67;;
21825;SDS011;11075;47.944;11.776;2022-09-09T03:09:32;6.57;;;1.50;;
21825;SDS011;11075;47.944;11.776;2022-09-09T03:11:59;2.60;;;1.63;;
21825;SDS011;11075;47.944;11.776;2022-09-09T03:14:29;3.05;;;1.42;;
21825;SDS011;11075;47.944;11.776;2022-09-09T03:16:56;3.20;;;1.48;;
21825;SDS011;11075;47.944;11.776;2022-09-09T03:19:30;7.72;;;2.00;;
21825;SDS011;11075;47.944;11.776;2022-09-09T03:21:57;2.00;;;1.60;;
21825;SDS011;11075;47.944;11.776;2022-09-09T03:24:24;2.30;;;1.35;;
21825;SDS011;11075;47.944;11.776;2022-09-09T03:26:53;3.75;;;1.52;;
21825;SDS011;11075;47.944;11.776;2022-09-09T03:29:19;1.57;;;1.47;;
21825;SDS011;11075;47.944;11.776;2022-09-09T03:31:47;3.70;;;1.40;;
21825;SDS011;11075;47.944;11.776;2022-09-09T03:34:13;2.58;;;1.27;;
21825;SDS011;11075;47.944;11.776;2022-09-09T03:36:40;2.83;;;1.42;;
21825;SDS011;11075;47.944;11.776;2022-09-09T03:39:10;7.32;;;1.75;;
21825;SDS011;11075;47.944;11.776;2022-09-09T03:41:40;3.65;;;1.65;;
21825;SDS011;11075;47.944;11.776;2022-09-09T03:44:07;3.05;;;1.40;;
21825;SDS011;11075;47.944;11.776;2022-09-09T03:46:37;4.47;;;1.17;;
21825;SDS011;11075;47.944;11.776;2022-09-09T03:49:04;6.93;;;1.73;;
21825;SDS011;11075;47.944;11.776;2022-09-09T03:51:31;4.63;;;1.55;;
21825;SDS011;11075;47.944;11.776;2022-09-09T03:54:04;6.30;;;1.52;;
21825;SDS011;11075;47.944;11.776;2022-09-09T03:56:34;3.58;;;1.67;;
21825;SDS011;11075;47.944;11.776;2022-09-09T03:59:02;4.28;;;1.33;;
21825;SDS011;11075;47.944;11.776;2022-09-09T04:01:29;5.47;;;1.88;;
21825;SDS011;11075;47.944;11.776;2022-09-09T04:03:56;6.80;;;1.50;;
21825;SDS011;11075;47.944;11.776;2022-09-09T04:06:24;3.72;;;1.90;;
21825;SDS011;11075;47.944;11.776;2022-09-09T04:08:52;6.13;;;1.70;;
21825;SDS011;11075;47.944;11.776;2022-09-09T04:11:19;4.85;;;1.80;;
21825;SDS011;11075;47.944;11.776;2022-09-09T04:13:49;4.57;;;1.42;;
21825;SDS011;11075;47.944;11.776;2022-09-09T04:16:17;3.95;;;1.20;;
21825;SDS011;11075;47.944;11.776;2022-09-09T04:18:44;3.10;;;1.45;;
21825;SDS011;11075;47.944;11.776;2022-09-09T04:21:13;3.35;;;1.80;;
21825;SDS011;11075;47.944;11.776;2022-09-09T04:23:39;2.40;;;1.58;;
21825;SDS011;11075;47.944;11.776;2022-09-09T04:26:07;5.88;;;1.60;;
21825;SDS011;11075;47.944;11.776;2022-09-09T04:28:35;3.83;;;2.00;;
21825;SDS011;11075;47.944;11.776;2022-09-09T04:31:17;5.35;;;1.50;;
21825;SDS011;11075;47.944;11.776;2022-09-09T04:33:47;4.37;;;1.77;;
21825;SDS011;11075;47.944;11.776;2022-09-09T04:36:15;3.00;;;1.60;;
21825;SDS011;11075;47.944;11.776;2022-09-09T04:38:43;6.00;;;1.55;;
21825;SDS011;11075;47.944;11.776;2022-09-09T04:41:11;6.68;;;1.60;;
21825;SDS011;11075;47.944;11.776;2022-09-09T04:43:42;7.57;;;1.42;;
21825;SDS011;11075;47.944;11.776;2022-09-09T04:46:10;5.45;;;1.40;;
21825;SDS011;11075;47.944;11.776;2022-09-09T04:48:37;3.65;;;1.45;;
21825;SDS011;11075;47.944;11.776;2022-09-09T04:51:06;7.47;;;1.90;;
21825;SDS011;11075;47.944;11.776;2022-09-09T04:53:36;3.70;;;1.70;;
21825;SDS011;11075;47.944;11.776;2022-09-09T04:56:05;5.93;;;2.70;;
21825;SDS011;11075;47.944;11.776;2022-09-09T04:58:41;8.70;;;1.80;;
21825;SDS011;11075;47.944;11.776;2022-09-09T05:01:17;4.40;;;1.73;;
21825;SDS011;11075;47.944;11.776;2022-09-09T05:03:47;4.10;;;1.60;;
21825;SDS011;11075;47.944;11.776;2022-09-09T05:06:18;4.27;;;1.67;;
21825;SDS011;11075;47.944;11.776;2022-09-09T05:08:49;3.03;;;1.90;;
21825;SDS011;11075;47.944;11.776;2022-09-09T05:11:20;3.00;;;1.50;;
21825;SDS011;11075;47.944;11.776;2022-09-09T05:13:56;3.03;;;1.50;;
21825;SDS011;11075;47.944;11.776;2022-09-09T05:16:23;6.38;;;1.90;;
21825;SDS011;11075;47.944;11.776;2022-09-09T05:18:51;8.93;;;2.28;;
21825;SDS011;11075;47.944;11.776;2022-09-09T05:21:19;4.80;;;1.60;;
21825;SDS011;11075;47.944;11.776;2022-09-09T05:23:47;6.75;;;2.10;;
21825;SDS011;11075;47.944;11.776;2022-09-09T05:26:15;2.72;;;1.63;;
21825;SDS011;11075;47.944;11.776;2022-09-09T05:28:46;3.53;;;1.65;;
21825;SDS011;11075;47.944;11.776;2022-09-09T05:31:14;2.60;;;1.67;;
21825;SDS011;11075;47.944;11.776;2022-09-09T05:33:44;6.97;;;1.30;;
21825;SDS011;11075;47.944;11.776;2022-09-09T05:36:14;2.63;;;1.63;;
21825;SDS011;11075;47.944;11.776;2022-09-09T05:38:44;3.08;;;1.60;;
21825;SDS011;11075;47.944;11.776;2022-09-09T05:41:12;2.53;;;1.63;;
21825;SDS011;11075;47.944;11.776;2022-09-09T05:43:44;7.53;;;1.58;;
21825;SDS011;11075;47.944;11.776;2022-09-09T05:46:14;2.60;;;1.42;;
21825;SDS011;11075;47.944;11.776;2022-09-09T05:48:46;2.53;;;1.20;;
21825;SDS011;11075;47.944;11.776;2022-09-09T05:51:19;2.25;;;1.38;;
21825;SDS011;11075;47.944;11.776;2022-09-09T05:53:53;7.03;;;1.42;;
21825;SDS011;11075;47.944;11.776;2022-09-09T05:56:23;2.65;;;1.70;;
21825;SDS011;11075;47.944;11.776;2022-09-09T05:58:56;3.38;;;1.60;;
21825;SDS011;11075;47.944;11.776;2022-09-09T06:01:28;2.65;;;1.40;;
21825;SDS011;11075;47.944;11.776;2022-09-09T06:03:58;3.78;;;1.25;;
21825;SDS011;11075;47.944;11.776;2022-09-09T06:06:26;4.60;;;1.75;;
21825;SDS011;11075;47.944;11.776;2022-09-09T06:08:57;3.92;;;1.73;;
21825;SDS011;11075;47.944;11.776;2022-09-09T06:11:30;5.57;;;1.30;;
21825;SDS011;11075;47.944;11.776;2022-09-09T06:13:59;1.75;;;1.48;;
21825;SDS011;11075;47.944;11.776;2022-09-09T06:16:28;8.65;;;1.98;;
21825;SDS011;11075;47.944;11.776;2022-09-09T06:18:59;9.27;;;1.73;;
21825;SDS011;11075;47.944;11.776;2022-09-09T06:21:29;5.18;;;1.50;;
21825;SDS011;11075;47.944;11.776;2022-09-09T06:24:00;5.47;;;1.70;;
21825;SDS011;11075;47.944;11.776;2022-09-09T06:26:31;2.85;;;1.77;;
21825;SDS011;11075;47.944;11.776;2022-09-09T06:29:00;2.88;;;1.60;;
21825;SDS011;11075;47.944;11.776;2022-09-09T06:31:31;6.43;;;1.42;;
21825;SDS011;11075;47.944;11.776;2022-09-09T06:34:13;3.60;;;1.65;;
21825;SDS011;11075;47.944;11.776;2022-09-09T06:36:44;7.00;;;2.13;;
21825;SDS011;11075;47.944;11.776;2022-09-09T06:39:12;4.75;;;1.88;;
21825;SDS011;11075;47.944;11.776;2022-09-09T06:41:41;3.63;;;1.50;;
21825;SDS011;11075;47.944;11.776;2022-09-09T06:44:29;2.00;;;1.75;;
21825;SDS011;11075;47.944;11.776;2022-09-09T06:47:01;5.30;;;2.08;;
21825;SDS011;11075;47.944;11.776;2022-09-09T06:49:30;3.63;;;2.15;;
21825;SDS011;11075;47.944;11.776;2022-09-09T06:51:57;5.13;;;2.85;;
21825;SDS011;11075;47.944;11.776;2022-09-09T06:54:24;4.50;;;1.90;;
21825;SDS011;11075;47.944;11.776;2022-09-09T06:56:52;6.05;;;1.90;;
21825;SDS011;11075;47.944;11.776;2022-09-09T06:59:22;3.45;;;1.60;;
21825;SDS011;11075;47.944;11.776;2022-09-09T07:01:52;3.50;;;1.55;;
21825;SDS011;11075;47.944;11.776;2022-09-09T07:04:22;2.92;;;1.90;;
21825;SDS011;11075;47.944;11.776;2022-09-09T07:06:49;4.88;;;1.90;;
21825;SDS011;11075;47.944;11.776;2022-09-09T07:09:20;3.35;;;1.83;;
21825;SDS011;11075;47.944;11.776;2022-09-09T07:11:50;3.90;;;1.73;;
21825;SDS011;11075;47.944;11.776;2022-09-09T07:14:22;2.95;;;1.63;;
21825;SDS011;11075;47.944;11.776;2022-09-09T07:16:56;3.08;;;1.27;;
21825;SDS011;11075;47.944;11.776;2022-09-09T07:19:29;2.03;;;1.30;;
21825;SDS011;11075;47.944;11.776;2022-09-09T07:21:56;2.88;;;1.38;;
21825;SDS011;11075;47.944;11.776;2022-09-09T07:24:24;3.85;;;1.58;;
21825;SDS011;11075;47.944;11.776;2022-09-09T07:26:51;1.88;;;1.30;;
21825;SDS011;11075;47.944;11.776;2022-09-09T07:29:19;2.47;;;1.52;;
21825;SDS011;11075;47.944;11.776;2022-09-09T07:31:48;5.20;;;1.27;;
21825;SDS011;11075;47.944;11.776;2022-09-09T07:34:20;2.33;;;1.30;;
21825;SDS011;11075;47.944;11.776;2022-09-09T07:36:47;1.83;;;1.08;;
21825;SDS011;11075;47.944;11.776;2022-09-09T07:39:17;4.13;;;1.48;;
21825;SDS011;11075;47.944;11.776;2022-09-09T07:41:48;4.30;;;1.27;;
21825;SDS011;11075;47.944;11.776;2022-09-09T07:44:19;2.22;;;1.20;;
21825;SDS011;11075;47.944;11.776;2022-09-09T07:46:53;2.35;;;1.30;;
21825;SDS011;11075;47.944;11.776;2022-09-09T07:49:25;3.30;;;1.00;;
21825;SDS011;11075;47.944;11.776;2022-09-09T07:51:59;2.38;;;0.90;;
21825;SDS011;11075;47.944;11.776;2022-09-09T07:54:27;5.32;;;1.10;;
21825;SDS011;11075;47.944;11.776;2022-09-09T07:56:54;5.68;;;1.20;;
21825;SDS011;11075;47.944;11.776;2022-09-09T07:59:24;1.50;;;0.77;;
21825;SDS011;11075;47.944;11.776;2022-09-09T08:01:53;4.28;;;1.00;;
21825;SDS011;11075;47.944;11.776;2022-09-09T08:04:24;4.55;;;0.90;;
21825;SDS011;11075;47.944;11.776;2022-09-09T08:06:54;1.63;;;0.90;;
21825;SDS011;11075;47.944;11.776;2022-09-09T08:09:24;1.70;;;0.70;;
21825;SDS011;11075;47.944;11.776;2022-09-09T08:12:04;1.10;;;0.60;;
21825;SDS011;11075;47.944;11.776;2022-09-09T08:14:33;1.27;;;0.82;;
21825;SDS011;11075;47.944;11.776;2022-09-09T08:17:00;1.38;;;0.80;;
21825;SDS011;11075;47.944;11.776;2022-09-09T08:19:28;0.60;;;0.50;;
21825;SDS011;11075;47.944;11.776;2022-09-09T08:22:01;5.25;;;0.90;;
21825;SDS011;11075;47.944;11.776;2022-09-09T08:24:31;1.52;;;0.90;;
21825;SDS011;11075;47.944;11.776;2022-09-09T08:26:58;2.33;;;0.90;;
21825;SDS011;11075;47.944;11.776;2022-09-09T08:29:25;0.75;;;0.75;;
21825;SDS011;11075;47.944;11.776;2022-09-09T08:31:53;1.83;;;0.77;;
21825;SDS011;11075;47.944;11.776;2022-09-09T08:34:25;2.75;;;0.80;;
21825;SDS011;11075;47.944;11.776;2022-09-09T08:36:55;5.90;;;0.80;;
21825;SDS011;11075;47.944;11.776;2022-09-09T08:39:29;1.60;;;0.88;;
21825;SDS011;11075;47.944;11.776;2022-09-09T08:58:13;0.95;;;0.77;;
21825;SDS011;11075;47.944;11.776;2022-09-09T09:11:58;1.67;;;0.93;;
21825;SDS011;11075;47.944;11.776;2022-09-09T09:14:34;1.33;;;0.80;;
21825;SDS011;11075;47.944;11.776;2022-09-09T09:17:24;1.58;;;0.90;;
21825;SDS011;11075;47.944;11.776;2022-09-09T09:19:54;4.00;;;1.13;;
21825;SDS011;11075;47.944;11.776;2022-09-09T09:22:22;1.13;;;0.80;;
21825;SDS011;11075;47.944;11.776;2022-09-09T09:25:10;2.58;;;1.38;;
21825;SDS011;11075;47.944;11.776;2022-09-09T09:30:35;3.67;;;0.95;;
21825;SDS011;11075;47.944;11.776;2022-09-09T09:35:45;1.15;;;0.75;;
21825;SDS011;11075;47.944;11.776;2022-09-09T09:38:22;1.85;;;0.90;;
21825;SDS011;11075;47.944;11.776;2022-09-09T09:41:11;1.40;;;0.90;;
21825;SDS011;11075;47.944;11.776;2022-09-09T09:43:40;0.80;;;0.80;;
21825;SDS011;11075;47.944;11.776;2022-09-09T09:46:20;1.60;;;0.77;;
21825;SDS011;11075;47.944;11.776;2022-09-09T09:49:04;8.00;;;1.30;;
21825;SDS011;11075;47.944;11.776;2022-09-09T09:51:33;1.98;;;1.20;;
21825;SDS011;11075;47.944;11.776;2022-09-09T09:54:26;3.30;;;1.20;;
21825;SDS011;11075;47.944;11.776;2022-09-09T09:57:11;2.55;;;1.00;;
21825;SDS011;11075;47.944;11.776;2022-09-09T09:59:42;3.58;;;1.58;;
21825;SDS011;11075;47.944;11.776;2022-09-09T10:02:20;2.85;;;1.20;;
21825;SDS011;11075;47.944;11.776;2022-09-09T10:05:00;1.35;;;1.00;;
21825;SDS011;11075;47.944;11.776;2022-09-09T10:07:34;1.92;;;1.30;;
21825;SDS011;11075;47.944;11.776;2022-09-09T10:10:02;2.85;;;1.33;;
21825;SDS011;11075;47.944;11.776;2022-09-09T10:20:40;2.42;;;1.30;;
21825;SDS011;11075;47.944;11.776;2022-09-09T10:26:25;3.33;;;1.15;;
21825;SDS011;11075;47.944;11.776;2022-09-09T10:36:58;1.23;;;0.63;;
21825;SDS011;11075;47.944;11.776;2022-09-09T10:39:39;0.80;;;0.80;;
21825;SDS011;11075;47.944;11.776;2022-09-09T10:42:14;2.75;;;0.80;;
21825;SDS011;11075;47.944;11.776;2022-09-09T10:53:35;4.53;;;0.52;;
21825;SDS011;11075;47.944;11.776;2022-09-09T10:56:13;1.73;;;0.50;;
21825;SDS011;11075;47.944;11.776;2022-09-09T10:59:00;2.33;;;0.73;;
21825;SDS011;11075;47.944;11.776;2022-09-09T11:04:20;3.30;;;0.70;;
21825;SDS011;11075;47.944;11.776;2022-09-09T11:06:54;1.83;;;0.80;;
21825;SDS011;11075;47.944;11.776;2022-09-09T11:09:23;0.68;;;0.68;;
21825;SDS011;11075;47.944;11.776;2022-09-09T11:11:55;0.82;;;0.60;;
21825;SDS011;11075;47.944;11.776;2022-09-09T11:14:28;1.77;;;0.35;;
21825;SDS011;11075;47.944;11.776;2022-09-09T11:19:34;0.75;;;0.50;;
21825;SDS011;11075;47.944;11.776;2022-09-09T11:22:25;2.92;;;0.70;;
21825;SDS011;11075;47.944;11.776;2022-09-09T11:38:26;2.40;;;1.30;;
21825;SDS011;11075;47.944;11.776;2022-09-09T11:40:59;3.50;;;3.20;;
21825;SDS011;11075;47.944;11.776;2022-09-09T11:43:40;2.58;;;2.33;;
21825;SDS011;11075;47.944;11.776;2022-09-09T11:46:20;4.15;;;3.22;;
21825;SDS011;11075;47.944;11.776;2022-09-09T11:49:01;3.28;;;2.33;;
21825;SDS011;11075;47.944;11.776;2022-09-09T11:51:31;1.70;;;1.60;;
21825;SDS011;11075;47.944;11.776;2022-09-09T11:54:04;4.60;;;4.20;;
21825;SDS011;11075;47.944;11.776;2022-09-09T11:57:19;9.52;;;8.65;;
21825;SDS011;11075;47.944;11.776;2022-09-09T12:00:01;1.58;;;1.38;;
21825;SDS011;11075;47.944;11.776;2022-09-09T12:02:37;2.53;;;1.00;;
21825;SDS011;11075;47.944;11.776;2022-09-09T12:05:16;1.75;;;1.23;;
21825;SDS011;11075;47.944;11.776;2022-09-09T12:07:54;2.00;;;1.83;;
21825;SDS011;11075;47.944;11.776;2022-09-09T12:10:26;1.30;;;0.70;;
21825;SDS011;11075;47.944;11.776;2022-09-09T12:13:07;0.90;;;0.68;;
21825;SDS011;11075;47.944;11.776;2022-09-09T12:15:54;2.63;;;1.60;;
21825;SDS011;11075;47.944;11.776;2022-09-09T12:18:41;2.05;;;1.38;;
21825;SDS011;11075;47.944;11.776;2022-09-09T12:23:40;0.80;;;0.70;;
21825;SDS011;11075;47.944;11.776;2022-09-09T12:26:27;0.77;;;0.68;;
21825;SDS011;11075;47.944;11.776;2022-09-09T12:31:51;1.23;;;0.60;;
21825;SDS011;11075;47.944;11.776;2022-09-09T12:37:05;0.90;;;0.40;;
21825;SDS011;11075;47.944;11.776;2022-09-09T12:39:42;2.00;;;1.08;;
21825;SDS011;11075;47.944;11.776;2022-09-09T12:42:20;1.58;;;0.73;;
21825;SDS011;11075;47.944;11.776;2022-09-09T12:44:58;0.88;;;0.60;;
21825;SDS011;11075;47.944;11.776;2022-09-09T12:53:48;0.60;;;0.60;;
21825;SDS011;11075;47.944;11.776;2022-09-09T12:56:08;3.00;;;1.67;;
21825;SDS011;11075;47.944;11.776;2022-09-09T12:58:45;1.58;;;0.70;;
21825;SDS011;11075;47.944;11.776;2022-09-09T13:01:22;1.25;;;0.90;;
21825;SDS011;11075;47.944;11.776;2022-09-09T13:03:54;1.77;;;1.20;;
21825;SDS011;11075;47.944;11.776;2022-09-09T13:06:22;1.60;;;0.80;;
21825;SDS011;11075;47.944;11.776;2022-09-09T13:08:55;3.28;;;1.33;;
21825;SDS011;11075;47.944;11.776;2022-09-09T13:11:33;0.90;;;0.70;;
21825;SDS011;11075;47.944;11.776;2022-09-09T13:14:05;0.75;;;0.60;;
21825;SDS011;11075;47.944;11.776;2022-09-09T13:16:33;2.65;;;0.60;;
21825;SDS011;11075;47.944;11.776;2022-09-09T13:19:08;1.50;;;0.50;;
21825;SDS011;11075;47.944;11.776;2022-09-09T13:21:40;0.93;;;0.45;;
21825;SDS011;11075;47.944;11.776;2022-09-09T13:24:21;1.38;;;0.75;;
21825;SDS011;11075;47.944;11.776;2022-09-09T13:26:54;2.30;;;0.80;;
21825;SDS011;11075;47.944;11.776;2022-09-09T13:29:29;0.55;;;0.50;;
21825;SDS011;11075;47.944;11.776;2022-09-09T13:32:04;0.70;;;0.70;;
21825;SDS011;11075;47.944;11.776;2022-09-09T13:34:35;2.65;;;1.75;;
21825;SDS011;11075;47.944;11.776;2022-09-09T13:37:03;0.50;;;0.50;;
21825;SDS011;11075;47.944;11.776;2022-09-09T13:39:34;1.67;;;1.17;;
21825;SDS011;11075;47.944;11.776;2022-09-09T13:42:03;2.17;;;1.00;;
21825;SDS011;11075;47.944;11.776;2022-09-09T13:44:31;1.85;;;1.55;;
21825;SDS011;11075;47.944;11.776;2022-09-09T13:47:03;2.40;;;1.05;;
21825;SDS011;11075;47.944;11.776;2022-09-09T13:49:36;7.80;;;1.67;;
21825;SDS011;11075;47.944;11.776;2022-09-09T13:52:10;2.25;;;1.42;;
21825;SDS011;11075;47.944;11.776;2022-09-09T13:54:40;4.72;;;1.13;;
21825;SDS011;11075;47.944;11.776;2022-09-09T13:57:13;2.05;;;0.70;;
21825;SDS011;11075;47.944;11.776;2022-09-09T13:59:52;1.40;;;0.63;;
21825;SDS011;11075;47.944;11.776;2022-09-09T14:02:36;1.92;;;0.77;;
21825;SDS011;11075;47.944;11.776;2022-09-09T14:05:05;5.50;;;1.00;;
21825;SDS011;11075;47.944;11.776;2022-09-09T14:07:32;0.60;;;0.57;;
21825;SDS011;11075;47.944;11.776;2022-09-09T14:09:59;0.50;;;0.50;;
21825;SDS011;11075;47.944;11.776;2022-09-09T14:12:27;2.20;;;0.50;;
21825;SDS011;11075;47.944;11.776;2022-09-09T14:14:53;1.58;;;0.52;;
21825;SDS011;11075;47.944;11.776;2022-09-09T14:17:20;1.52;;;0.50;;
21825;SDS011;11075;47.944;11.776;2022-09-09T14:19:48;0.60;;;0.50;;
21825;SDS011;11075;47.944;11.776;2022-09-09T14:22:15;3.42;;;0.55;;
21825;SDS011;11075;47.944;11.776;2022-09-09T14:24:42;2.17;;;0.60;;
21825;SDS011;11075;47.944;11.776;2022-09-09T14:27:08;2.15;;;0.60;;
21825;SDS011;11075;47.944;11.776;2022-09-09T14:29:35;2.97;;;0.57;;
21825;SDS011;11075;47.944;11.776;2022-09-09T14:32:02;0.70;;;0.45;;
21825;SDS011;11075;47.944;11.776;2022-09-09T14:34:29;0.50;;;0.50;;
21825;SDS011;11075;47.944;11.776;2022-09-09T14:36:58;1.13;;;0.40;;
21825;SDS011;11075;47.944;11.776;2022-09-09T14:39:25;0.95;;;0.55;;
21825;SDS011;11075;47.944;11.776;2022-09-09T14:41:52;1.23;;;0.60;;
21825;SDS011;11075;47.944;11.776;2022-09-09T14:44:19;1.13;;;0.60;;
21825;SDS011;11075;47.944;11.776;2022-09-09T14:46:45;1.95;;;0.43;;
21825;SDS011;11075;47.944;11.776;2022-09-09T14:49:12;1.90;;;0.57;;
21825;SDS011;11075;47.944;11.776;2022-09-09T14:51:39;1.45;;;0.40;;
21825;SDS011;11075;47.944;11.776;2022-09-09T14:54:06;4.10;;;0.60;;
21825;SDS011;11075;47.944;11.776;2022-09-09T14:56:33;0.85;;;0.30;;
21825;SDS011;11075;47.944;11.776;2022-09-09T14:59:01;2.80;;;0.40;;
21825;SDS011;11075;47.944;11.776;2022-09-09T15:01:28;2.05;;;0.47;;
21825;SDS011;11075;47.944;11.776;2022-09-09T15:03:58;2.15;;;0.50;;
21825;SDS011;11075;47.944;11.776;2022-09-09T15:06:28;1.00;;;0.40;;
21825;SDS011;11075;47.944;11.776;2022-09-09T15:08:57;1.73;;;0.45;;
21825;SDS011;11075;47.944;11.776;2022-09-09T15:11:25;0.35;;;0.35;;
21825;SDS011;11075;47.944;11.776;2022-09-09T15:13:54;0.30;;;0.30;;
21825;SDS011;11075;47.944;11.776;2022-09-09T15:16:23;1.10;;;0.40;;
21825;SDS011;11075;47.944;11.776;2022-09-09T15:18:52;1.45;;;0.52;;
21825;SDS011;11075;47.944;11.776;2022-09-09T15:21:22;1.25;;;0.40;;
21825;SDS011;11075;47.944;11.776;2022-09-09T15:23:50;0.50;;;0.30;;
21825;SDS011;11075;47.944;11.776;2022-09-09T15:26:17;1.05;;;0.45;;
21825;SDS011;11075;47.944;11.776;2022-09-09T15:28:45;3.40;;;0.50;;
21825;SDS011;11075;47.944;11.776;2022-09-09T15:31:14;0.47;;;0.43;;
21825;SDS011;11075;47.944;11.776;2022-09-09T15:33:50;1.27;;;0.60;;
21825;SDS011;11075;47.944;11.776;2022-09-09T15:38:48;0.63;;;0.50;;
21825;SDS011;11075;47.944;11.776;2022-09-09T15:41:16;0.32;;;0.32;;
21825;SDS011;11075;47.944;11.776;2022-09-09T15:43:45;4.70;;;0.77;;
21825;SDS011;11075;47.944;11.776;2022-09-09T15:46:23;3.75;;;0.50;;
21825;SDS011;11075;47.944;11.776;2022-09-09T15:48:54;0.88;;;0.40;;
21825;SDS011;11075;47.944;11.776;2022-09-09T15:51:23;1.15;;;0.70;;
21825;SDS011;11075;47.944;11.776;2022-09-09T15:54:07;1.75;;;0.65;;
21825;SDS011;11075;47.944;11.776;2022-09-09T15:56:35;1.60;;;0.57;;
21825;SDS011;11075;47.944;11.776;2022-09-09T15:59:02;2.28;;;0.73;;
21825;SDS011;11075;47.944;11.776;2022-09-09T16:01:30;0.82;;;0.60;;
21825;SDS011;11075;47.944;11.776;2022-09-09T16:03:58;0.57;;;0.57;;
21825;SDS011;11075;47.944;11.776;2022-09-09T16:06:27;1.35;;;0.80;;
21825;SDS011;11075;47.944;11.776;2022-09-09T16:08:56;0.85;;;0.60;;
21825;SDS011;11075;47.944;11.776;2022-09-09T16:11:28;1.65;;;0.70;;
21825;SDS011;11075;47.944;11.776;2022-09-09T16:13:58;1.05;;;0.65;;
21825;SDS011;11075;47.944;11.776;2022-09-09T16:16:26;6.07;;;0.80;;
21825;SDS011;11075;47.944;11.776;2022-09-09T16:18:56;0.63;;;0.60;;
21825;SDS011;11075;47.944;11.776;2022-09-09T16:21:33;1.33;;;0.60;;
21825;SDS011;11075;47.944;11.776;2022-09-09T16:24:02;3.30;;;0.82;;
21825;SDS011;11075;47.944;11.776;2022-09-09T16:26:31;3.67;;;0.55;;
21825;SDS011;11075;47.944;11.776;2022-09-09T16:29:00;1.73;;;0.60;;
21825;SDS011;11075;47.944;11.776;2022-09-09T16:31:28;4.22;;;0.70;;
21825;SDS011;11075;47.944;11.776;2022-09-09T16:33:56;2.75;;;0.40;;
21825;SDS011;11075;47.944;11.776;2022-09-09T16:36:24;0.60;;;0.60;;
21825;SDS011;11075;47.944;11.776;2022-09-09T16:38:59;2.58;;;0.80;;
21825;SDS011;11075;47.944;11.776;2022-09-09T16:41:28;4.25;;;0.73;;
21825;SDS011;11075;47.944;11.776;2022-09-09T16:43:56;3.05;;;0.75;;
21825;SDS011;11075;47.944;11.776;2022-09-09T16:46:26;1.58;;;1.13;;
21825;SDS011;11075;47.944;11.776;2022-09-09T16:48:55;1.02;;;0.93;;
21825;SDS011;11075;47.944;11.776;2022-09-09T16:51:24;1.60;;;0.93;;
21825;SDS011;11075;47.944;11.776;2022-09-09T16:53:53;1.85;;;1.02;;
21825;SDS011;11075;47.944;11.776;2022-09-09T16:56:25;1.55;;;0.90;;
21825;SDS011;11075;47.944;11.776;2022-09-09T16:58:54;2.13;;;1.13;;
21825;SDS011;11075;47.944;11.776;2022-09-09T17:01:23;2.03;;;1.10;;
21825;SDS011;11075;47.944;11.776;2022-09-09T17:03:55;1.60;;;0.80;;
21825;SDS011;11075;47.944;11.776;2022-09-09T17:06:26;2.25;;;0.80;;
21825;SDS011;11075;47.944;11.776;2022-09-09T17:08:55;1.30;;;1.08;;
21825;SDS011;11075;47.944;11.776;2022-09-09T17:11:23;1.90;;;1.00;;
21825;SDS011;11075;47.944;11.776;2022-09-09T17:13:51;1.15;;;0.70;;
21825;SDS011;11075;47.944;11.776;2022-09-09T17:16:19;0.82;;;0.80;;
21825;SDS011;11075;47.944;11.776;2022-09-09T17:18:50;3.60;;;0.93;;
21825;SDS011;11075;47.944;11.776;2022-09-09T17:21:19;3.00;;;0.88;;